createdAt,value
2019-03-24T00:02:06.465Z,57.33
2019-03-24T00:04:34.942Z,55.37
2019-03-24T00:07:03.353Z,58.80
2019-03-24T00:09:31.757Z,57.13
2019-03-24T00:12:00.174Z,60.00
2019-03-24T00:14:28.663Z,61.77
2019-03-24T00:16:57.072Z,61.63
2019-03-24T00:19:25.483Z,63.77
2019-03-24T00:21:53.900Z,65.83
2019-03-24T00:24:22.299Z,63.90
2019-03-24T00:26:50.709Z,67.63
2019-03-24T00:29:19.194Z,66.53
2019-03-24T00:31:47.615Z,69.27
2019-03-24T00:34:16.018Z,70.97
2019-03-24T00:36:44.440Z,68.47
2019-03-24T00:39:12.837Z,68.57
2019-03-24T00:41:41.254Z,67.83
2019-03-24T00:44:09.655Z,68.90
2019-03-24T00:46:38.065Z,65.67
2019-03-24T00:49:06.469Z,68.77
2019-03-24T00:51:34.886Z,72.63
2019-03-24T00:54:03.294Z,76.80
2019-03-24T00:56:31.720Z,71.63
2019-03-24T00:59:00.125Z,71.20
2019-03-24T01:01:28.539Z,80.13
2019-03-24T01:03:56.941Z,72.73
2019-03-24T01:06:25.354Z,70.67
2019-03-24T01:08:53.785Z,71.77
2019-03-24T01:11:22.268Z,72.10
2019-03-24T01:13:50.673Z,74.17
2019-03-24T01:16:19.243Z,75.63
2019-03-24T01:18:47.650Z,71.73
2019-03-24T01:21:16.065Z,75.90
2019-03-24T01:23:44.473Z,78.93
2019-03-24T01:26:12.878Z,75.07
2019-03-24T01:28:41.285Z,77.43
2019-03-24T01:31:09.689Z,73.07
2019-03-24T01:33:38.097Z,79.40
2019-03-24T01:36:06.505Z,75.37
2019-03-24T01:38:34.926Z,77.83
2019-03-24T01:41:03.597Z,74.63
2019-03-24T01:43:32.002Z,76.30
2019-03-24T01:46:00.479Z,79.03
2019-03-24T01:48:28.887Z,81.43
2019-03-24T01:50:57.286Z,82.03
2019-03-24T01:53:25.693Z,75.77
2019-03-24T01:55:54.158Z,77.30
2019-03-24T01:58:22.588Z,76.10
2019-03-24T02:00:51.060Z,76.13
2019-03-24T02:03:19.546Z,75.80
2019-03-24T02:05:48.032Z,75.57
2019-03-24T02:08:16.430Z,78.30
2019-03-24T02:10:44.833Z,76.30
2019-03-24T02:13:13.253Z,76.97
2019-03-24T02:15:41.725Z,77.27
2019-03-24T02:18:10.142Z,72.50
2019-03-24T02:20:38.536Z,79.10
2019-03-24T02:23:06.977Z,77.80
2019-03-24T02:25:35.385Z,73.80
2019-03-24T02:28:03.854Z,73.53
2019-03-24T02:30:32.260Z,77.57
2019-03-24T02:33:00.671Z,71.03
2019-03-24T02:35:29.077Z,73.70
2019-03-24T02:37:57.481Z,76.50
2019-03-24T02:40:25.949Z,79.17
2019-03-24T02:42:54.361Z,76.83
2019-03-24T02:45:22.840Z,73.90
2019-03-24T02:47:51.248Z,79.77
2019-03-24T02:50:19.649Z,76.03
2019-03-24T02:52:48.218Z,74.80
2019-03-24T02:55:16.628Z,80.23
2019-03-24T02:57:45.031Z,86.27
2019-03-24T03:00:13.608Z,81.90
2019-03-24T03:02:42.010Z,83.33
2019-03-24T03:05:10.858Z,85.70
2019-03-24T03:07:39.325Z,85.10
2019-03-24T03:10:09.284Z,79.00
2019-03-24T03:12:37.685Z,87.90
2019-03-24T03:15:08.310Z,81.40
2019-03-24T03:17:36.716Z,86.20
2019-03-24T03:20:07.167Z,81.77
2019-03-24T03:22:35.570Z,85.47
2019-03-24T03:25:06.281Z,85.47
2019-03-24T03:27:34.733Z,80.07
2019-03-24T03:30:03.309Z,72.60
2019-03-24T03:32:31.718Z,73.80
2019-03-24T03:35:00.794Z,73.93
2019-03-24T03:37:29.519Z,66.90
2019-03-24T03:39:58.534Z,66.70
2019-03-24T03:42:27.101Z,72.93
2019-03-24T03:44:55.505Z,71.00
2019-03-24T03:47:23.917Z,70.93
2019-03-24T03:49:52.327Z,69.33
2019-03-24T03:52:20.786Z,72.23
2019-03-24T03:54:49.265Z,72.60
2019-03-24T03:57:17.671Z,66.33
2019-03-24T03:59:46.307Z,71.00
2019-03-24T04:02:14.715Z,68.53
2019-03-24T04:04:43.118Z,74.20
2019-03-24T04:07:11.517Z,71.27
2019-03-24T04:09:39.934Z,75.90
2019-03-24T04:12:08.354Z,73.63
2019-03-24T04:14:36.753Z,65.10
2019-03-24T04:17:07.492Z,74.53
2019-03-24T04:19:35.310Z,70.00
2019-03-24T04:22:03.793Z,70.27
2019-03-24T04:24:32.191Z,72.00
2019-03-24T04:27:00.600Z,68.07
2019-03-24T04:29:29.026Z,69.00
2019-03-24T04:31:57.430Z,66.57
2019-03-24T04:34:25.834Z,64.83
2019-03-24T04:36:54.246Z,59.93
2019-03-24T04:39:22.656Z,62.63
2019-03-24T04:41:51.063Z,65.37
2019-03-24T04:44:19.469Z,64.67
2019-03-24T04:46:47.941Z,65.60
2019-03-24T04:49:16.349Z,64.20
2019-03-24T04:51:44.752Z,65.90
2019-03-24T04:54:13.161Z,78.03
2019-03-24T04:56:41.565Z,70.37
2019-03-24T04:59:09.985Z,65.97
2019-03-24T05:01:38.387Z,69.20
2019-03-24T05:04:06.793Z,68.80
2019-03-24T05:06:35.371Z,68.77
2019-03-24T05:09:04.485Z,62.10
2019-03-24T05:11:32.890Z,65.43
2019-03-24T05:14:01.370Z,64.37
2019-03-24T05:16:29.781Z,67.97
2019-03-24T05:18:58.481Z,71.40
2019-03-24T05:21:26.886Z,62.40
2019-03-24T05:23:55.328Z,65.70
2019-03-24T05:26:23.731Z,70.73
2019-03-24T05:28:52.145Z,69.03
2019-03-24T05:31:20.550Z,68.97
2019-03-24T05:33:48.979Z,62.27
2019-03-24T05:36:17.385Z,63.40
2019-03-24T05:38:45.802Z,64.60
2019-03-24T05:41:14.205Z,63.30
2019-03-24T05:43:42.622Z,61.07
2019-03-24T05:46:11.028Z,70.50
2019-03-24T05:48:39.441Z,65.67
2019-03-24T05:51:07.847Z,66.40
2019-03-24T05:53:36.264Z,71.10
2019-03-24T05:56:04.671Z,68.00
2019-03-24T05:58:34.624Z,62.33
2019-03-24T06:01:03.038Z,68.93
2019-03-24T06:03:31.481Z,66.47
2019-03-24T06:05:59.904Z,68.20
2019-03-24T06:08:28.325Z,67.73
2019-03-24T06:10:56.753Z,63.37
2019-03-24T06:13:25.169Z,66.50
2019-03-24T06:15:53.589Z,66.87
2019-03-24T06:18:21.994Z,67.97
2019-03-24T06:20:50.404Z,59.80
2019-03-24T06:23:18.840Z,62.20
2019-03-24T06:25:47.293Z,60.73
2019-03-24T06:28:15.700Z,62.80
2019-03-24T06:30:44.105Z,59.97
2019-03-24T06:33:12.510Z,59.10
2019-03-24T06:35:40.921Z,60.40
2019-03-24T06:38:09.313Z,59.43
2019-03-24T06:40:37.720Z,60.60
2019-03-24T06:43:06.135Z,63.40
2019-03-24T06:45:34.537Z,68.83
2019-03-24T06:48:02.953Z,65.07
2019-03-24T06:50:31.365Z,69.73
2019-03-24T06:52:59.765Z,66.17
2019-03-24T06:55:28.181Z,71.40
2019-03-24T06:57:56.585Z,65.67
2019-03-24T07:00:25.001Z,64.00
2019-03-24T07:02:53.401Z,69.87
2019-03-24T07:05:21.839Z,68.35
2019-03-24T07:07:50.302Z,64.27
2019-03-24T07:10:18.817Z,65.93
2019-03-24T07:12:47.220Z,61.40
2019-03-24T07:15:15.706Z,60.70
2019-03-24T07:17:44.138Z,66.77
2019-03-24T07:20:12.784Z,62.20
2019-03-24T07:22:41.189Z,62.57
2019-03-24T07:25:10.334Z,63.47
2019-03-24T07:27:38.737Z,68.33
2019-03-24T07:30:10.001Z,61.20
2019-03-24T07:32:38.410Z,63.50
2019-03-24T07:35:07.657Z,65.23
2019-03-24T07:37:36.295Z,62.87
2019-03-24T07:40:08.673Z,55.50
2019-03-24T07:42:37.100Z,54.33
2019-03-24T07:45:07.941Z,56.33
2019-03-24T07:47:36.357Z,55.63
2019-03-24T07:50:08.021Z,51.80
2019-03-24T07:52:36.605Z,47.47
2019-03-24T07:55:06.662Z,45.53
2019-03-24T07:57:35.072Z,44.80
2019-03-24T08:00:05.075Z,46.90
2019-03-24T08:02:33.490Z,44.70
2019-03-24T08:05:01.906Z,48.53
2019-03-24T08:07:30.356Z,46.23
2019-03-24T08:09:58.927Z,47.30
2019-03-24T08:12:27.337Z,48.20
2019-03-24T08:14:55.746Z,43.93
2019-03-24T08:17:24.165Z,41.33
2019-03-24T08:19:52.577Z,37.30
2019-03-24T08:22:20.996Z,42.57
2019-03-24T08:24:49.496Z,40.00
2019-03-24T08:27:17.911Z,40.47
2019-03-24T08:29:46.350Z,40.53
2019-03-24T08:32:14.829Z,45.53
2019-03-24T08:34:43.240Z,43.97
2019-03-24T08:37:11.692Z,40.57
2019-03-24T08:39:40.110Z,43.08
2019-03-24T08:42:08.524Z,44.77
2019-03-24T08:44:36.934Z,39.30
2019-03-24T08:47:05.425Z,41.02
2019-03-24T08:49:33.839Z,41.37
2019-03-24T08:52:03.153Z,44.10
2019-03-24T08:54:31.671Z,43.75
2019-03-24T08:57:00.158Z,41.83
2019-03-24T08:59:28.629Z,39.30
2019-03-24T09:01:57.036Z,38.53
2019-03-24T09:04:25.464Z,41.65
2019-03-24T09:06:53.869Z,42.93
2019-03-24T09:09:22.283Z,40.43
2019-03-24T09:11:50.688Z,42.80
2019-03-24T09:14:19.105Z,39.20
2019-03-24T09:16:47.517Z,41.55
2019-03-24T09:19:15.932Z,40.83
2019-03-24T09:21:44.359Z,46.02
2019-03-24T09:24:12.778Z,39.90
2019-03-24T09:26:41.186Z,43.08
2019-03-24T09:29:09.606Z,45.00
2019-03-24T09:31:38.013Z,40.95
2019-03-24T09:34:06.425Z,44.25
2019-03-24T09:36:35.096Z,44.25
2019-03-24T09:39:04.962Z,42.53
2019-03-24T09:41:33.404Z,40.20
2019-03-24T09:44:01.835Z,37.42
2019-03-24T09:46:30.245Z,45.73
2019-03-24T09:49:03.163Z,46.68
2019-03-24T09:51:28.793Z,45.38
2019-03-24T09:53:57.221Z,39.48
2019-03-24T09:56:25.637Z,46.25
2019-03-24T09:58:54.117Z,41.02
2019-03-24T10:01:22.529Z,42.08
2019-03-24T10:03:50.960Z,44.48
2019-03-24T10:06:19.438Z,45.28
2019-03-24T10:08:47.861Z,45.67
2019-03-24T10:11:16.273Z,46.20
2019-03-24T10:13:44.694Z,46.20
2019-03-24T10:16:13.161Z,44.70
2019-03-24T10:18:41.593Z,49.25
2019-03-24T10:21:09.988Z,45.83
2019-03-24T10:23:38.416Z,40.88
2019-03-24T10:26:06.821Z,49.48
2019-03-24T10:28:35.273Z,47.78
2019-03-24T10:31:03.711Z,49.53
2019-03-24T10:33:32.279Z,50.85
2019-03-24T10:36:00.692Z,50.55
2019-03-24T10:38:29.108Z,48.50
2019-03-24T10:40:57.515Z,49.03
2019-03-24T10:43:25.912Z,49.77
2019-03-24T10:45:54.324Z,44.83
2019-03-24T10:48:33.189Z,49.90
2019-03-24T10:50:53.006Z,52.30
2019-03-24T10:53:21.417Z,45.57
2019-03-24T10:55:49.830Z,49.63
2019-03-24T10:58:18.242Z,49.80
2019-03-24T11:00:46.858Z,50.13
2019-03-24T11:03:15.313Z,53.03
2019-03-24T11:05:43.745Z,50.30
2019-03-24T11:08:12.374Z,53.07
2019-03-24T11:10:40.962Z,52.27
2019-03-24T11:13:09.371Z,57.80
2019-03-24T11:15:37.784Z,59.93
2019-03-24T11:18:06.265Z,54.27
2019-03-24T11:20:34.685Z,54.20
2019-03-24T11:23:03.110Z,58.60
2019-03-24T11:25:31.520Z,54.43
2019-03-24T11:28:00.012Z,57.57
2019-03-24T11:30:28.433Z,60.90
2019-03-24T11:32:56.888Z,56.90
2019-03-24T11:35:25.305Z,55.33
2019-03-24T11:37:53.717Z,57.83
2019-03-24T11:40:22.138Z,56.13
2019-03-24T11:42:50.549Z,54.20
2019-03-24T11:45:19.135Z,56.63
2019-03-24T11:47:47.673Z,59.13
2019-03-24T11:50:16.313Z,56.07
2019-03-24T11:52:45.101Z,60.77
2019-03-24T11:55:13.802Z,54.60
2019-03-24T11:57:42.213Z,54.27
2019-03-24T12:00:12.560Z,54.30
2019-03-24T12:02:41.041Z,54.53
2019-03-24T12:05:09.884Z,61.80
2019-03-24T12:07:38.304Z,53.93
2019-03-24T12:10:07.845Z,53.37
2019-03-24T12:12:36.362Z,56.30
2019-03-24T12:15:06.409Z,59.13
2019-03-24T12:17:34.821Z,55.17
2019-03-24T12:20:04.861Z,54.73
2019-03-24T12:22:33.272Z,53.93
2019-03-24T12:25:01.682Z,56.37
2019-03-24T12:27:30.118Z,55.80
2019-03-24T12:29:58.526Z,52.90
2019-03-24T12:32:26.964Z,59.63
2019-03-24T12:34:55.425Z,64.37
2019-03-24T12:37:23.847Z,57.20
2019-03-24T12:39:52.255Z,57.80
2019-03-24T12:42:20.688Z,55.90
2019-03-24T12:44:49.093Z,53.57
2019-03-24T12:47:17.506Z,51.90
2019-03-24T12:49:45.924Z,54.57
2019-03-24T12:52:14.334Z,52.93
2019-03-24T12:54:42.737Z,54.47
2019-03-24T12:57:11.157Z,57.60
2019-03-24T12:59:39.580Z,54.83
2019-03-24T13:02:07.987Z,57.83
2019-03-24T13:04:36.404Z,52.53
2019-03-24T13:07:04.806Z,56.83
2019-03-24T13:09:33.763Z,52.63
2019-03-24T13:12:02.453Z,51.17
2019-03-24T13:14:30.972Z,54.53
2019-03-24T13:16:59.542Z,53.13
2019-03-24T13:19:28.034Z,54.23
2019-03-24T13:21:56.570Z,58.10
2019-03-24T13:24:25.272Z,51.43
2019-03-24T13:26:53.693Z,54.53
2019-03-24T13:29:22.121Z,55.30
2019-03-24T13:31:50.525Z,57.67
2019-03-24T13:34:18.937Z,58.87
2019-03-24T13:36:47.346Z,61.47
2019-03-24T13:39:15.752Z,59.93
2019-03-24T13:41:44.165Z,59.50
2019-03-24T13:44:12.580Z,60.27
2019-03-24T13:46:40.987Z,62.33
2019-03-24T13:49:09.397Z,55.67
2019-03-24T13:51:37.809Z,58.93
2019-03-24T13:54:06.382Z,57.93
2019-03-24T13:56:34.799Z,53.23
2019-03-24T13:59:03.744Z,56.67
2019-03-24T14:01:32.145Z,55.17
2019-03-24T14:04:00.641Z,57.17
2019-03-24T14:06:29.414Z,54.13
2019-03-24T14:08:57.825Z,57.07
2019-03-24T14:11:26.241Z,56.67
2019-03-24T14:13:54.674Z,54.93
2019-03-24T14:16:23.081Z,56.03
2019-03-24T14:18:51.501Z,58.40
2019-03-24T14:21:19.905Z,61.03
2019-03-24T14:23:48.317Z,58.27
2019-03-24T14:26:16.750Z,59.87
2019-03-24T14:28:45.254Z,58.77
2019-03-24T14:31:13.653Z,63.03
2019-03-24T14:33:42.073Z,57.30
2019-03-24T14:36:10.482Z,58.60
2019-03-24T14:38:38.914Z,60.50
2019-03-24T14:41:07.315Z,59.23
2019-03-24T14:43:35.728Z,57.00
2019-03-24T14:46:04.137Z,61.10
2019-03-24T14:48:32.562Z,63.73
2019-03-24T14:51:01.033Z,57.97
2019-03-24T14:53:29.601Z,63.77
2019-03-24T14:55:58.054Z,59.27
2019-03-24T14:58:26.482Z,55.87
2019-03-24T15:00:54.893Z,54.87
2019-03-24T15:03:23.301Z,57.80
2019-03-24T15:05:51.721Z,57.90
2019-03-24T15:08:20.381Z,61.67
2019-03-24T15:10:48.799Z,56.13
2019-03-24T15:13:17.245Z,67.27
2019-03-24T15:15:45.657Z,65.50
2019-03-24T15:18:14.066Z,59.67
2019-03-24T15:20:42.486Z,59.43
2019-03-24T15:23:10.893Z,58.53
2019-03-24T15:25:39.370Z,58.80
2019-03-24T15:28:07.781Z,56.57
2019-03-24T15:30:36.191Z,59.83
2019-03-24T15:33:04.606Z,62.87
2019-03-24T15:35:33.085Z,64.63
2019-03-24T15:38:08.441Z,58.87
2019-03-24T15:40:31.793Z,55.63
2019-03-24T15:43:00.201Z,59.70
2019-03-24T15:45:28.609Z,59.17
2019-03-24T15:47:57.013Z,61.93
2019-03-24T15:50:25.430Z,65.93
2019-03-24T15:52:53.917Z,63.77
2019-03-24T15:55:22.490Z,62.67
2019-03-24T15:57:50.897Z,62.33
2019-03-24T16:00:22.424Z,59.30
2019-03-24T16:02:50.970Z,57.47
2019-03-24T16:05:19.386Z,55.37
2019-03-24T16:07:47.806Z,57.33
2019-03-24T16:10:16.220Z,55.57
2019-03-24T16:12:44.677Z,64.27
2019-03-24T16:15:13.199Z,61.53
2019-03-24T16:17:41.738Z,57.33
2019-03-24T16:20:10.317Z,60.40
2019-03-24T16:22:38.753Z,54.97
2019-03-24T16:25:07.902Z,58.33
2019-03-24T16:27:36.666Z,59.80
2019-03-24T16:30:07.942Z,61.00
2019-03-24T16:32:36.430Z,60.13
2019-03-24T16:35:06.075Z,58.00
2019-03-24T16:37:34.489Z,61.60
2019-03-24T16:40:03.274Z,58.70
2019-03-24T16:42:31.787Z,59.50
2019-03-24T16:45:00.313Z,58.50
2019-03-24T16:47:28.781Z,56.87
2019-03-24T16:49:57.201Z,56.83
2019-03-24T16:52:25.619Z,54.67
2019-03-24T16:54:54.048Z,56.73
2019-03-24T16:57:22.833Z,53.20
2019-03-24T16:59:51.338Z,56.93
2019-03-24T17:02:19.827Z,55.60
2019-03-24T17:04:48.237Z,54.60
2019-03-24T17:07:16.645Z,52.77
2019-03-24T17:09:45.063Z,50.90
2019-03-24T17:12:13.474Z,57.57
2019-03-24T17:14:41.881Z,52.93
2019-03-24T17:17:11.515Z,51.80
2019-03-24T17:19:40.142Z,53.27
2019-03-24T17:22:08.589Z,44.37
2019-03-24T17:24:36.997Z,46.57
2019-03-24T17:27:05.485Z,48.13
2019-03-24T17:29:33.922Z,40.23
2019-03-24T17:32:02.333Z,42.77
2019-03-24T17:34:30.742Z,47.27
2019-03-24T17:36:59.173Z,45.03
2019-03-24T17:39:27.588Z,46.77
2019-03-24T17:41:56.002Z,47.47
2019-03-24T17:44:24.482Z,48.03
2019-03-24T17:46:52.890Z,45.27
2019-03-24T17:49:21.307Z,42.17
2019-03-24T17:52:00.189Z,44.03
2019-03-24T17:54:19.973Z,43.67
2019-03-24T17:56:48.385Z,47.83
2019-03-24T17:59:16.857Z,40.00
2019-03-24T18:01:45.253Z,43.07
2019-03-24T18:04:13.670Z,44.33
2019-03-24T18:06:42.080Z,45.70
2019-03-24T18:09:10.498Z,47.00
2019-03-24T18:11:38.912Z,49.63
2019-03-24T18:14:07.322Z,47.00
2019-03-24T18:16:35.730Z,45.77
2019-03-24T18:19:04.150Z,43.87
2019-03-24T18:21:32.622Z,45.70
2019-03-24T18:24:01.077Z,47.23
2019-03-24T18:26:29.766Z,49.33
2019-03-24T18:28:58.180Z,44.50
2019-03-24T18:31:26.649Z,45.53
2019-03-24T18:33:55.078Z,46.57
2019-03-24T18:36:23.504Z,50.83
2019-03-24T18:38:52.007Z,47.67
2019-03-24T18:41:20.417Z,51.10
2019-03-24T18:43:48.861Z,49.97
2019-03-24T18:46:17.261Z,49.73
2019-03-24T18:48:45.666Z,51.13
2019-03-24T18:51:14.086Z,49.77
2019-03-24T18:53:42.562Z,53.87
2019-03-24T18:56:10.973Z,51.20
2019-03-24T18:58:39.375Z,55.40
2019-03-24T19:01:07.811Z,51.60
2019-03-24T19:03:36.193Z,52.70
2019-03-24T19:06:04.609Z,49.40
2019-03-24T19:08:33.014Z,45.83
2019-03-24T19:11:01.425Z,43.27
2019-03-24T19:13:29.840Z,45.53
2019-03-24T19:15:58.245Z,42.57
2019-03-24T19:18:26.655Z,39.60
2019-03-24T19:20:55.061Z,50.77
2019-03-24T19:23:23.474Z,42.73
2019-03-24T19:25:51.882Z,43.37
2019-03-24T19:28:20.285Z,44.10
2019-03-24T19:30:48.701Z,46.63
2019-03-24T19:33:17.119Z,65.10
2019-03-24T19:35:46.409Z,60.83
2019-03-24T19:38:14.808Z,51.17
2019-03-24T19:40:43.224Z,49.87
2019-03-24T19:43:11.942Z,48.87
2019-03-24T19:45:40.350Z,44.37
2019-03-24T19:48:08.837Z,45.50
2019-03-24T19:50:37.248Z,45.27
2019-03-24T19:53:05.780Z,48.63
2019-03-24T19:55:34.279Z,44.63
2019-03-24T19:58:02.747Z,42.73
2019-03-24T20:00:31.510Z,45.33
2019-03-24T20:02:59.914Z,43.77
2019-03-24T20:05:28.330Z,46.87
2019-03-24T20:07:57.010Z,51.67
2019-03-24T20:10:25.552Z,46.27
2019-03-24T20:12:54.157Z,46.83
2019-03-24T20:15:22.620Z,46.90
2019-03-24T20:17:51.030Z,50.40
2019-03-24T20:20:19.505Z,51.00
2019-03-24T20:22:56.574Z,42.60
2019-03-24T20:25:18.041Z,44.17
2019-03-24T20:27:46.450Z,46.73
2019-03-24T20:30:16.195Z,46.70
2019-03-24T20:32:44.603Z,45.10
2019-03-24T20:35:13.070Z,42.57
2019-03-24T20:37:41.521Z,44.03
2019-03-24T20:42:44.731Z,40.53
2019-03-24T20:45:14.381Z,41.17
2019-03-24T20:47:42.796Z,41.80
2019-03-24T20:50:11.646Z,38.63
2019-03-24T20:52:40.138Z,40.80
2019-03-24T20:55:08.720Z,42.17
2019-03-24T20:57:37.125Z,43.73
2019-03-24T21:00:07.561Z,48.37
2019-03-24T21:02:35.967Z,42.37
2019-03-24T21:05:05.718Z,52.27
2019-03-24T21:07:34.210Z,48.00
2019-03-24T21:10:02.623Z,48.33
2019-03-24T21:12:31.025Z,45.50
2019-03-24T21:14:59.437Z,46.20
2019-03-24T21:17:27.845Z,49.27
2019-03-24T21:19:56.249Z,48.33
2019-03-24T21:22:24.661Z,53.83
2019-03-24T21:24:53.065Z,48.70
2019-03-24T21:27:21.488Z,43.40
2019-03-24T21:29:49.889Z,43.20
2019-03-24T21:32:18.310Z,49.83
2019-03-24T21:34:46.717Z,48.80
2019-03-24T21:37:15.138Z,48.43
2019-03-24T21:39:43.537Z,49.60
2019-03-24T21:42:11.952Z,48.07
2019-03-24T21:44:40.354Z,51.43
2019-03-24T21:47:08.769Z,49.97
2019-03-24T21:49:37.174Z,56.97
2019-03-24T21:52:05.593Z,55.00
2019-03-24T21:54:34.002Z,48.33
2019-03-24T21:57:02.419Z,48.73
2019-03-24T21:59:30.824Z,52.47
2019-03-24T22:01:59.266Z,50.90
2019-03-24T22:04:27.716Z,64.30
2019-03-24T22:06:56.317Z,61.23
2019-03-24T22:09:24.706Z,60.37
2019-03-24T22:11:53.118Z,55.63
2019-03-24T22:14:21.520Z,94.50
2019-03-24T22:16:49.938Z,65.80
2019-03-24T22:19:18.344Z,57.27
2019-03-24T22:21:46.821Z,55.63
2019-03-24T22:24:15.229Z,49.30
2019-03-24T22:26:43.637Z,49.53
2019-03-24T22:29:12.046Z,48.57
2019-03-24T22:31:40.448Z,49.57
2019-03-24T22:34:08.919Z,49.70
2019-03-24T22:36:37.422Z,48.17
2019-03-24T22:39:07.705Z,56.47
2019-03-24T22:41:36.377Z,48.13
2019-03-24T22:44:05.282Z,47.83
2019-03-24T22:46:33.689Z,46.13
2019-03-24T22:49:02.098Z,45.50
2019-03-24T22:51:30.502Z,42.60
2019-03-24T22:54:03.270Z,42.80
2019-03-24T22:56:29.040Z,45.43
2019-03-24T22:58:57.449Z,48.73
2019-03-24T23:01:25.925Z,48.97
2019-03-24T23:03:54.337Z,51.10
2019-03-24T23:06:22.737Z,46.50
2019-03-24T23:08:51.221Z,43.23
2019-03-24T23:11:19.618Z,44.10
2019-03-24T23:13:48.016Z,43.87
2019-03-24T23:16:16.425Z,48.30
2019-03-24T23:18:44.838Z,52.23
2019-03-24T23:21:13.269Z,48.03
2019-03-24T23:23:41.754Z,45.60
2019-03-24T23:26:10.174Z,45.20
2019-03-24T23:28:38.570Z,47.07
2019-03-24T23:31:06.981Z,43.97
2019-03-24T23:33:35.386Z,48.10
2019-03-24T23:36:03.795Z,44.27
2019-03-24T23:38:32.200Z,45.97
2019-03-24T23:41:00.614Z,43.47
2019-03-24T23:43:29.014Z,42.23
2019-03-24T23:45:57.418Z,41.70
2019-03-24T23:48:25.819Z,43.83
2019-03-24T23:50:54.227Z,46.87
2019-03-24T23:53:22.632Z,44.50
2019-03-24T23:55:51.042Z,49.40
2019-03-24T23:58:19.466Z,40.80
